Time;durP1;ratioP1;P1;durP2;ratioP2;P2;SDS_P1;SDS_P2;PMS_P1;PMS_P2;Temp;Humidity;BMP_temperature;BMP_pressure;BME280_temperature;BME280_humidity;BME280_pressure;Samples;Min_cycle;Max_cycle;Signal;HPM_P1;HPM_P2
2021/09/28 00:00:17;;;;;;;7.93;3.90;;;13.80;99.90;;;;;;12517507;28;20045;-39
2021/09/28 00:06:19;;;;;;;12.32;4.70;;;13.80;99.90;;;;;;12525418;28;20037;-39
2021/09/28 00:12:21;;;;;;;10.68;5.18;;;13.70;99.90;;;;;;12522802;28;20080;-35
2021/09/28 00:18:26;;;;;;;14.45;5.45;;;13.70;99.90;;;;;;12526111;28;20057;-39
2021/09/28 00:24:28;;;;;;;10.38;5.60;;;13.70;99.90;;;;;;12524721;28;20068;-40
2021/09/28 00:30:31;;;;;;;9.02;6.47;;;13.70;99.90;;;;;;12520682;28;20113;-39
2021/09/28 00:36:33;;;;;;;9.55;6.38;;;13.60;99.90;;;;;;12521331;28;20049;-39
2021/09/28 00:42:36;;;;;;;14.40;7.30;;;13.60;99.90;;;;;;12517237;28;20068;-35
2021/09/28 00:48:38;;;;;;;11.32;7.70;;;13.60;99.90;;;;;;12519751;28;20117;-35
2021/09/28 00:54:43;;;;;;;17.98;8.60;;;13.50;99.90;;;;;;12516291;28;20451;-39
2021/09/28 01:00:45;;;;;;;;;;;13.40;99.90;;;;;;12517327;28;20076;-38
2021/09/28 01:06:47;;;;;;;14.50;8.95;;;13.40;99.90;;;;;;12516351;28;20271;-39
2021/09/28 01:12:50;;;;;;;17.63;10.23;;;13.40;99.90;;;;;;12525246;28;20052;-35
2021/09/28 01:18:53;;;;;;;16.30;10.05;;;13.30;99.90;;;;;;12523693;28;20493;-39
2021/09/28 01:24:55;;;;;;;20.35;11.00;;;13.30;99.90;;;;;;12514460;28;20049;-35
2021/09/28 01:30:59;;;;;;;15.48;11.57;;;13.30;99.90;;;;;;12520652;28;20510;-36
2021/09/28 01:37:02;;;;;;;20.70;12.10;;;13.30;99.90;;;;;;12521235;28;20048;-39
2021/09/28 01:43:09;;;;;;;15.10;12.07;;;13.30;99.90;;;;;;12526686;28;20048;-36
2021/09/28 01:49:14;;;;;;;19.33;12.93;;;13.30;99.90;;;;;;12529416;28;20041;-35
2021/09/28 01:55:17;;;;;;;16.88;11.35;;;13.50;99.90;;;;;;12528124;28;20060;-36
2021/09/28 02:01:20;;;;;;;13.45;10.15;;;13.60;99.90;;;;;;12522155;28;20052;-35
2021/09/28 02:07:22;;;;;;;16.38;10.93;;;13.70;99.90;;;;;;12525770;28;20057;-40
2021/09/28 02:13:25;;;;;;;18.90;12.48;;;13.50;99.90;;;;;;12529128;28;20048;-39
2021/09/28 02:19:27;;;;;;;18.23;12.82;;;13.50;99.90;;;;;;12529364;28;20053;-38
2021/09/28 02:25:29;;;;;;;19.05;12.32;;;13.50;99.90;;;;;;12527079;28;20049;-40
2021/09/28 02:31:31;;;;;;;18.80;12.70;;;13.50;99.90;;;;;;12529266;28;20601;-35
2021/09/28 02:37:33;;;;;;;23.08;12.98;;;13.40;99.90;;;;;;12528717;28;20440;-39
2021/09/28 02:43:35;;;;;;;20.30;13.77;;;13.30;99.90;;;;;;12523279;28;20045;-35
2021/09/28 02:49:37;;;;;;;19.92;14.05;;;13.10;99.90;;;;;;12523979;28;20052;-35
2021/09/28 02:55:41;;;;;;;23.35;14.60;;;13.00;99.90;;;;;;12522809;28;20056;-39
2021/09/28 03:01:44;;;;;;;23.33;14.38;;;12.90;99.90;;;;;;12530888;28;20855;-39
2021/09/28 03:07:47;;;;;;;22.52;13.75;;;12.90;99.90;;;;;;12522276;28;20574;-35
2021/09/28 03:13:50;;;;;;;25.52;15.75;;;12.80;99.90;;;;;;12522064;28;20514;-35
2021/09/28 03:19:52;;;;;;;26.98;17.23;;;13.00;99.90;;;;;;12524949;28;20053;-35
2021/09/28 03:25:55;;;;;;;29.88;18.85;;;12.90;99.90;;;;;;12522085;28;20064;-39
2021/09/28 03:31:59;;;;;;;32.38;19.38;;;12.80;99.90;;;;;;12520639;28;20053;-35
2021/09/28 03:38:02;;;;;;;32.00;20.73;;;12.80;99.90;;;;;;12527417;28;20076;-39
2021/09/28 03:44:07;;;;;;;32.78;21.20;;;12.80;99.90;;;;;;12523331;28;20049;-35
2021/09/28 03:50:10;;;;;;;33.58;22.58;;;12.80;99.90;;;;;;12522688;28;20045;-39
2021/09/28 03:56:14;;;;;;;42.10;23.65;;;12.70;99.90;;;;;;12523715;28;20593;-39
2021/09/28 04:02:17;;;;;;;42.25;26.35;;;12.80;99.90;;;;;;12522063;28;20049;-41
2021/09/28 04:08:19;;;;;;;43.97;25.30;;;12.80;99.90;;;;;;12523133;28;20041;-35
2021/09/28 04:14:26;;;;;;;50.10;28.20;;;12.90;99.90;;;;;;12520094;28;20164;-39
2021/09/28 04:20:41;;;;;;;45.50;27.10;;;12.80;99.90;;;;;;12522720;28;20068;-39
2021/09/28 04:26:48;;;;;;;47.57;28.57;;;12.90;99.90;;;;;;12524359;28;20403;-35
2021/09/28 04:32:55;;;;;;;51.72;30.15;;;12.80;99.90;;;;;;12521923;28;20053;-35
2021/09/28 04:38:58;;;;;;;48.28;30.85;;;12.80;99.90;;;;;;12520594;28;20058;-39
2021/09/28 04:45:01;;;;;;;47.58;30.42;;;12.70;99.90;;;;;;12522583;28;20064;-44
2021/09/28 04:51:03;;;;;;;45.88;31.17;;;12.70;99.90;;;;;;12521910;28;20385;-35
2021/09/28 04:57:11;;;;;;;50.58;32.15;;;12.70;99.90;;;;;;12522163;28;20049;-39
2021/09/28 05:03:22;;;;;;;50.92;32.10;;;12.70;99.90;;;;;;12516368;28;20490;-35
2021/09/28 05:09:39;;;;;;;50.38;30.52;;;12.70;99.90;;;;;;12523796;28;20053;-35
2021/09/28 05:15:55;;;;;;;44.53;30.08;;;12.60;99.90;;;;;;12516665;28;20041;-35
2021/09/28 05:22:10;;;;;;;45.35;29.17;;;12.60;99.90;;;;;;12530083;28;20065;-35
2021/09/28 05:28:27;;;;;;;47.05;28.40;;;12.50;99.90;;;;;;12530980;28;20049;-35
2021/09/28 05:34:44;;;;;;;42.60;27.15;;;12.40;99.90;;;;;;12486010;28;20049;-39
2021/09/28 05:41:00;;;;;;;43.35;25.27;;;12.30;99.90;;;;;;12478074;28;20054;-39
2021/09/28 05:47:13;;;;;;;41.55;25.25;;;12.30;99.90;;;;;;12480716;28;20050;-39
2021/09/28 05:53:36;;;;;;;43.80;24.92;;;12.30;99.90;;;;;;12487351;28;20038;-35
2021/09/28 05:59:55;;;;;;;42.25;24.38;;;12.30;99.90;;;;;;12477313;28;20527;-40
2021/09/28 06:06:08;;;;;;;;;;;12.40;99.90;;;;;;12522520;28;20049;-35
2021/09/28 06:12:23;;;;;;;41.40;22.23;;;12.30;99.90;;;;;;12505402;28;19932;-35
2021/09/28 06:18:37;;;;;;;37.83;22.40;;;12.30;99.90;;;;;;12485674;28;20149;-39
2021/09/28 06:24:55;;;;;;;49.53;23.70;;;12.30;99.90;;;;;;12530200;28;20053;-39
2021/09/28 06:31:09;;;;;;;41.92;23.00;;;12.20;99.90;;;;;;12528973;28;20049;-39
2021/09/28 06:37:21;;;;;;;;;;;12.30;99.90;;;;;;12528328;28;20516;-34
2021/09/28 06:43:34;;;;;;;43.92;22.13;;;12.20;99.90;;;;;;12493661;28;19970;-40
2021/09/28 06:49:50;;;;;;;43.75;23.27;;;12.10;99.90;;;;;;12478893;28;20053;-39
2021/09/28 06:56:02;;;;;;;39.08;23.60;;;12.30;99.90;;;;;;12499641;28;20132;-35
2021/09/28 07:02:15;;;;;;;;;;;12.50;99.90;;;;;;12506104;28;20045;-35
2021/09/28 07:08:34;;;;;;;45.92;24.55;;;12.50;99.90;;;;;;12481517;28;19928;-35
2021/09/28 07:14:50;;;;;;;43.22;24.10;;;12.60;99.90;;;;;;12501657;28;20060;-38
2021/09/28 07:21:06;;;;;;;42.35;24.88;;;12.70;99.90;;;;;;12527191;28;20487;-35
2021/09/28 07:27:21;;;;;;;41.97;23.27;;;12.70;99.90;;;;;;12526146;28;20075;-38
2021/09/28 07:33:35;;;;;;;41.40;22.40;;;12.80;99.90;;;;;;12488451;28;20128;-35
2021/09/28 07:39:51;;;;;;;30.23;20.38;;;13.00;99.90;;;;;;12475401;28;20052;-39
2021/09/28 07:46:05;;;;;;;31.50;20.08;;;13.10;99.90;;;;;;12520817;28;20053;-39
2021/09/28 07:52:19;;;;;;;35.72;19.92;;;13.30;99.90;;;;;;12527094;28;20517;-35
2021/09/28 07:58:32;;;;;;;30.27;17.70;;;13.40;99.90;;;;;;12522273;28;20084;-39
2021/09/28 08:04:46;;;;;;;34.47;17.45;;;13.50;99.90;;;;;;12510307;28;20037;-39
2021/09/28 08:11:04;;;;;;;28.63;16.45;;;13.50;99.90;;;;;;12521585;28;20041;-39
2021/09/28 08:17:22;;;;;;;27.95;15.02;;;13.60;99.90;;;;;;12519563;28;20065;-39
2021/09/28 08:23:39;;;;;;;25.73;13.95;;;13.80;99.90;;;;;;12492037;28;20046;-39
2021/09/28 08:29:52;;;;;;;26.65;14.40;;;13.90;99.90;;;;;;12482760;28;20491;-39
2021/09/28 08:36:07;;;;;;;28.48;15.32;;;13.90;99.90;;;;;;12492342;28;20074;-39
2021/09/28 08:42:22;;;;;;;31.65;15.48;;;13.90;99.90;;;;;;12524050;28;20053;-35
2021/09/28 08:48:36;;;;;;;26.17;14.10;;;13.90;99.90;;;;;;12523876;28;20132;-40
2021/09/28 08:54:49;;;;;;;24.87;14.73;;;13.90;99.90;;;;;;12477900;28;20057;-35
2021/09/28 09:01:10;;;;;;;24.08;14.63;;;14.10;99.90;;;;;;12455176;28;20462;-35
2021/09/28 09:07:28;;;;;;;26.92;14.20;;;14.20;99.90;;;;;;12474580;28;20087;-37
2021/09/28 09:13:45;;;;;;;23.10;13.40;;;14.50;99.90;;;;;;12495268;28;20049;-35
2021/09/28 09:20:18;;;;;;;21.58;12.02;;;14.70;99.90;;;;;;12517732;28;20065;-39
2021/09/28 09:26:32;;;;;;;26.80;14.23;;;14.70;99.90;;;;;;12524211;28;20052;-35
2021/09/28 09:32:59;;;;;;;19.58;12.52;;;14.90;99.90;;;;;;12511850;28;20080;-36
2021/09/28 09:39:13;;;;;;;24.67;12.32;;;15.00;99.90;;;;;;12523598;28;20052;-36
2021/09/28 09:45:27;;;;;;;24.15;10.20;;;15.40;99.90;;;;;;12480559;28;20038;-35
2021/09/28 09:51:52;;;;;;;20.70;10.55;;;15.70;99.90;;;;;;12477489;28;20041;-35
2021/09/28 09:58:06;;;;;;;21.88;8.98;;;16.10;99.90;;;;;;12479692;28;20470;-39
2021/09/28 10:04:23;;;;;;;12.65;7.93;;;16.40;99.90;;;;;;12508867;28;20167;-36
2021/09/28 10:10:38;;;;;;;11.63;7.00;;;16.20;99.90;;;;;;12516854;28;20553;-35
2021/09/28 10:16:53;;;;;;;14.27;6.25;;;16.40;99.90;;;;;;12481499;28;20057;-36
2021/09/28 10:23:12;;;;;;;17.95;7.10;;;16.40;99.90;;;;;;12473840;28;20090;-36
2021/09/28 10:29:45;;;;;;;14.43;7.10;;;16.60;99.90;;;;;;12482682;28;20088;-40
2021/09/28 10:36:14;;;;;;;12.98;6.40;;;16.80;99.90;;;;;;12520042;28;20072;-35
2021/09/28 10:43:02;;;;;;;16.38;6.68;;;17.10;99.90;;;;;;12498410;28;20179;-40
2021/09/28 10:49:30;;;;;;;13.65;5.35;;;17.00;99.90;;;;;;12483229;28;20049;-36
2021/09/28 10:55:56;;;;;;;11.52;4.72;;;17.00;99.90;;;;;;12513090;28;20045;-40
2021/09/28 11:02:13;;;;;;;15.18;4.63;;;17.10;99.90;;;;;;12530248;28;20131;-35
2021/09/28 11:08:34;;;;;;;15.98;5.03;;;17.30;99.90;;;;;;12526348;28;20132;-39
2021/09/28 11:14:46;;;;;;;21.58;5.18;;;17.30;99.90;;;;;;12482411;28;20055;-37
2021/09/28 11:21:09;;;;;;;16.25;5.07;;;17.60;99.90;;;;;;12471491;28;20499;-35
2021/09/28 11:27:20;;;;;;;11.68;4.18;;;17.50;99.90;;;;;;12481563;28;20410;-40
2021/09/28 11:33:41;;;;;;;12.57;3.75;;;17.60;99.90;;;;;;12500964;28;20540;-39
2021/09/28 11:39:53;;;;;;;12.55;4.10;;;17.60;99.90;;;;;;12525113;28;20060;-35
2021/09/28 11:46:10;;;;;;;14.18;4.00;;;17.70;99.90;;;;;;12504064;28;20502;-41
2021/09/28 11:52:27;;;;;;;10.50;3.28;;;17.90;99.90;;;;;;12535358;28;20083;-35
2021/09/28 11:58:36;;;;;;;10.77;3.00;;;18.00;99.90;;;;;;12522394;28;20061;-40
2021/09/28 12:05:25;;;;;;;21.00;3.92;;;18.10;99.90;;;;;;12488038;28;20102;-40
2021/09/28 12:11:33;;;;;;;12.13;3.03;;;18.00;99.90;;;;;;12481025;28;20041;-37
2021/09/28 12:17:38;;;;;;;11.77;2.95;;;17.70;99.90;;;;;;12479907;28;20061;-39
2021/09/28 12:23:42;;;;;;;9.60;2.38;;;17.80;99.90;;;;;;12496918;28;20053;-40
2021/09/28 12:29:48;;;;;;;13.27;2.60;;;17.60;99.90;;;;;;12522354;28;20064;-41
2021/09/28 12:35:55;;;;;;;10.57;2.75;;;17.80;99.90;;;;;;12522629;28;20460;-39
2021/09/28 12:42:07;;;;;;;12.57;2.20;;;18.10;99.90;;;;;;12518433;28;20060;-42
2021/09/28 12:48:41;;;;;;;8.88;2.08;;;18.10;99.90;;;;;;12523729;28;20422;-35
2021/09/28 12:54:53;;;;;;;10.90;2.00;;;18.00;99.90;;;;;;12469259;28;20080;-36
2021/09/28 13:01:06;;;;;;;11.60;1.92;;;18.10;99.90;;;;;;12459649;28;20057;-40
2021/09/28 13:07:15;;;;;;;9.48;2.13;;;17.90;99.90;;;;;;12463526;28;20050;-40
2021/09/28 13:13:20;;;;;;;7.38;1.75;;;17.90;99.90;;;;;;12493850;28;20045;-35
2021/09/28 13:19:24;;;;;;;7.78;1.95;;;18.00;99.90;;;;;;12521028;28;20355;-41
2021/09/28 13:25:29;;;;;;;9.20;1.85;;;18.10;99.90;;;;;;12476562;28;20452;-37
2021/09/28 13:31:34;;;;;;;12.43;2.38;;;18.10;99.90;;;;;;12475885;28;20045;-35
2021/09/28 13:37:38;;;;;;;;;;;18.10;99.90;;;;;;12478777;28;20103;-39
2021/09/28 13:43:42;;;;;;;11.25;2.00;;;18.10;99.90;;;;;;12511445;28;20019;-41
2021/09/28 13:49:50;;;;;;;8.95;1.85;;;18.40;99.90;;;;;;12529185;28;20087;-36
2021/09/28 13:55:58;;;;;;;10.13;1.70;;;18.10;99.90;;;;;;12480457;28;20049;-40
2021/09/28 14:02:07;;;;;;;9.02;1.77;;;17.90;99.90;;;;;;12486100;28;20088;-35
2021/09/28 14:08:17;;;;;;;9.50;1.77;;;17.90;99.90;;;;;;12487106;28;20128;-35
2021/09/28 14:14:21;;;;;;;8.38;2.30;;;17.70;99.90;;;;;;12517823;28;20045;-36
2021/09/28 14:20:25;;;;;;;6.47;1.52;;;17.60;99.90;;;;;;12529268;28;20045;-40
2021/09/28 14:26:30;;;;;;;4.40;1.60;;;17.70;99.90;;;;;;12530512;28;20399;-39
2021/09/28 14:32:35;;;;;;;8.85;2.30;;;17.80;99.90;;;;;;12523423;28;20123;-41
2021/09/28 14:38:38;;;;;;;9.45;2.10;;;17.80;99.90;;;;;;12527414;28;20356;-35
2021/09/28 14:44:41;;;;;;;15.23;2.25;;;17.70;99.90;;;;;;12522095;28;20147;-36
2021/09/28 14:50:44;;;;;;;10.38;1.88;;;17.70;99.90;;;;;;12522865;28;20049;-40
2021/09/28 14:56:55;;;;;;;8.90;1.88;;;17.70;99.90;;;;;;12526926;28;20464;-35
2021/09/28 15:03:06;;;;;;;12.13;2.00;;;17.70;99.90;;;;;;12518889;28;20150;-36
2021/09/28 15:09:11;;;;;;;6.97;1.80;;;17.40;99.90;;;;;;12528332;28;20057;-40
2021/09/28 15:15:20;;;;;;;7.75;1.83;;;17.40;99.90;;;;;;12520356;28;20052;-37
2021/09/28 15:21:23;;;;;;;10.57;2.15;;;17.30;99.90;;;;;;12521145;28;20123;-36
2021/09/28 15:27:26;;;;;;;11.90;1.93;;;17.00;99.90;;;;;;12527738;28;20126;-40
2021/09/28 15:33:31;;;;;;;8.32;1.73;;;17.00;99.90;;;;;;12520829;28;20338;-40
2021/09/28 15:39:41;;;;;;;7.70;2.25;;;17.00;99.90;;;;;;12526815;28;20091;-39
2021/09/28 15:45:49;;;;;;;7.60;1.75;;;17.00;99.90;;;;;;12523309;28;20048;-40
2021/09/28 15:51:59;;;;;;;11.57;2.58;;;17.00;99.90;;;;;;12523983;28;20414;-40
2021/09/28 15:58:08;;;;;;;6.13;1.88;;;16.80;99.90;;;;;;12524812;28;20075;-39
2021/09/28 16:04:23;;;;;;;6.85;1.85;;;16.80;99.90;;;;;;12517528;28;20076;-35
2021/09/28 16:10:38;;;;;;;10.05;2.38;;;16.80;99.90;;;;;;12486169;28;20061;-39
2021/09/28 16:16:50;;;;;;;9.70;1.83;;;16.70;99.90;;;;;;12524293;28;20041;-40
2021/09/28 16:23:03;;;;;;;5.82;1.88;;;16.60;99.90;;;;;;12523264;28;20452;-39
2021/09/28 16:29:17;;;;;;;7.68;1.52;;;16.70;99.90;;;;;;12526178;28;20073;-40
2021/09/28 16:35:29;;;;;;;9.30;1.85;;;16.60;99.90;;;;;;12515466;28;20419;-38
2021/09/28 16:41:42;;;;;;;6.25;1.95;;;16.50;99.90;;;;;;12494459;28;20433;-36
2021/09/28 16:47:55;;;;;;;9.32;1.92;;;16.60;99.90;;;;;;12524610;28;20052;-35
2021/09/28 16:54:08;;;;;;;14.45;2.30;;;16.50;99.90;;;;;;12512107;28;20053;-39
2021/09/28 17:00:20;;;;;;;6.38;2.10;;;16.20;99.90;;;;;;12516691;28;20053;-36
2021/09/28 17:06:36;;;;;;;4.93;1.60;;;16.20;99.90;;;;;;12490098;28;20105;-39
2021/09/28 17:12:43;;;;;;;6.88;2.17;;;15.90;99.90;;;;;;12481060;28;20081;-39
2021/09/28 17:18:56;;;;;;;12.35;2.20;;;15.70;99.90;;;;;;12483935;28;20188;-35
2021/09/28 17:25:19;;;;;;;8.73;1.92;;;15.50;99.90;;;;;;12534003;28;20048;-39
2021/09/28 17:31:48;;;;;;;9.25;2.10;;;15.40;99.90;;;;;;12532870;28;20506;-39
2021/09/28 17:37:55;;;;;;;10.02;2.53;;;15.20;99.90;;;;;;12532499;28;20064;-35
2021/09/28 17:43:57;;;;;;;9.18;2.80;;;15.20;99.90;;;;;;12497643;28;20050;-39
2021/09/28 17:50:01;;;;;;;8.32;2.40;;;15.00;99.90;;;;;;12482390;28;20046;-39
2021/09/28 17:56:15;;;;;;;9.50;2.90;;;14.90;99.90;;;;;;12479327;28;20057;-40
2021/09/28 18:02:19;;;;;;;9.90;3.05;;;14.80;99.90;;;;;;12482179;28;20045;-39
2021/09/28 18:08:21;;;;;;;9.35;3.28;;;14.70;99.90;;;;;;12474697;28;20111;-35
2021/09/28 18:14:25;;;;;;;6.28;2.60;;;14.60;99.90;;;;;;12478790;28;20136;-40
2021/09/28 18:20:27;;;;;;;11.73;2.78;;;14.60;99.90;;;;;;12478629;28;20053;-35
2021/09/28 18:26:30;;;;;;;9.18;2.70;;;14.50;99.90;;;;;;12478555;28;20050;-36
2021/09/28 18:32:33;;;;;;;7.80;2.40;;;14.40;99.90;;;;;;12474926;28;20050;-43
2021/09/28 18:38:36;;;;;;;8.40;2.53;;;14.40;99.90;;;;;;12459749;28;20404;-35
2021/09/28 18:44:38;;;;;;;9.50;2.30;;;14.30;99.90;;;;;;12473046;28;20077;-35
2021/09/28 18:50:41;;;;;;;7.25;3.00;;;14.30;99.90;;;;;;12479435;28;20065;-35
2021/09/28 19:02:55;;;;;;;10.80;3.00;;;14.10;99.90;;;;;;12479336;28;20133;-39
2021/09/28 19:09:08;;;;;;;6.78;2.88;;;14.00;99.90;;;;;;12479481;28;20466;-41
2021/09/28 19:15:11;;;;;;;8.88;2.53;;;13.90;99.90;;;;;;12478302;28;20054;-35
2021/09/28 19:27:22;;;;;;;9.18;2.80;;;14.00;99.90;;;;;;12477925;28;20068;-35
2021/09/28 19:33:24;;;;;;;9.20;2.80;;;13.90;99.90;;;;;;12476721;28;20056;-39
2021/09/28 19:39:38;;;;;;;9.63;2.55;;;14.00;99.90;;;;;;12478161;28;20183;-35
2021/09/28 19:45:51;;;;;;;10.10;2.90;;;13.90;99.90;;;;;;12520626;28;20041;-36
2021/09/28 19:51:56;;;;;;;6.57;2.40;;;13.80;99.90;;;;;;12526336;28;20045;-40
2021/09/28 20:04:18;;;;;;;10.07;3.13;;;13.90;99.90;;;;;;12494542;28;20068;-35
2021/09/28 20:36:02;;;;;;;7.47;2.60;;;13.80;99.90;;;;;;12514895;28;20427;-38
2021/09/28 20:42:04;;;;;;;6.90;2.80;;;13.80;99.90;;;;;;12497203;28;20404;-40
2021/09/28 20:48:06;;;;;;;9.82;2.85;;;13.80;99.90;;;;;;12469936;28;20083;-34
2021/09/28 20:54:08;;;;;;;8.15;2.70;;;13.70;99.90;;;;;;12457234;28;20049;-39
2021/09/28 21:00:10;;;;;;;6.82;2.88;;;13.60;99.90;;;;;;12456850;28;20693;-39
2021/09/28 21:06:13;;;;;;;9.35;2.78;;;13.60;99.90;;;;;;12518273;28;20907;-39
2021/09/28 21:12:14;;;;;;;7.38;2.55;;;13.50;99.90;;;;;;12506107;28;20038;-39
2021/09/28 21:18:18;;;;;;;9.25;2.80;;;13.60;99.90;;;;;;12469992;28;20486;-39
2021/09/28 21:24:20;;;;;;;7.35;2.40;;;13.40;99.90;;;;;;12509356;28;20155;-38
2021/09/28 21:30:22;;;;;;;6.40;2.50;;;13.40;99.90;;;;;;12516671;28;20567;-34
2021/09/28 21:36:31;;;;;;;5.05;2.30;;;13.30;99.90;;;;;;12455275;28;20049;-35
2021/09/28 21:42:34;;;;;;;6.35;2.75;;;13.30;99.90;;;;;;12463706;28;20080;-35
2021/09/28 21:48:36;;;;;;;6.35;2.45;;;13.30;99.90;;;;;;12470317;28;20195;-40
2021/09/28 21:54:38;;;;;;;7.82;2.78;;;13.30;99.90;;;;;;12507288;28;20172;-35
2021/09/28 22:00:41;;;;;;;7.60;2.80;;;13.30;99.90;;;;;;12520602;28;20413;-35
2021/09/28 22:06:43;;;;;;;5.47;2.70;;;13.30;99.90;;;;;;12482363;28;20057;-39
2021/09/28 22:12:47;;;;;;;8.98;2.40;;;13.30;99.90;;;;;;12502600;28;20101;-39
2021/09/28 22:18:49;;;;;;;9.55;3.15;;;13.40;99.90;;;;;;12528348;28;20159;-39
2021/09/28 22:24:51;;;;;;;5.63;2.78;;;13.50;99.90;;;;;;12485063;28;20049;-40
2021/09/28 22:30:53;;;;;;;4.80;2.50;;;13.40;99.90;;;;;;12477173;28;20045;-35
2021/09/28 22:36:55;;;;;;;7.53;2.75;;;13.30;99.90;;;;;;12477046;28;20176;-35
2021/09/28 22:42:56;;;;;;;5.50;2.70;;;13.10;99.90;;;;;;12476636;28;20045;-40
2021/09/28 22:48:59;;;;;;;7.80;2.80;;;13.00;99.90;;;;;;12475932;28;20046;-40
2021/09/28 22:55:02;;;;;;;4.75;2.63;;;12.90;99.90;;;;;;12518156;28;20041;-35
2021/09/28 23:01:03;;;;;;;6.70;2.70;;;13.10;99.90;;;;;;12516751;28;20038;-39
2021/09/28 23:07:06;;;;;;;9.18;2.75;;;13.00;99.90;;;;;;12480107;28;20060;-40
2021/09/28 23:13:07;;;;;;;4.53;2.35;;;12.90;99.90;;;;;;12498856;28;20041;-40
2021/09/28 23:19:10;;;;;;;12.10;2.90;;;12.80;99.90;;;;;;12521867;28;20053;-40
2021/09/28 23:25:12;;;;;;;7.60;2.83;;;12.80;99.90;;;;;;12480218;28;20053;-39
2021/09/28 23:31:13;;;;;;;6.95;2.65;;;12.90;99.90;;;;;;12484959;28;20098;-35
2021/09/28 23:37:15;;;;;;;7.07;2.40;;;13.10;99.90;;;;;;12521474;28;20049;-35
2021/09/28 23:43:18;;;;;;;7.55;2.60;;;13.20;99.90;;;;;;12498644;28;20367;-40
2021/09/28 23:49:20;;;;;;;8.75;2.65;;;13.10;99.90;;;;;;12474456;28;20738;-36
2021/09/28 23:55:21;;;;;;;5.50;2.40;;;13.10;99.90;;;;;;12517289;28;20094;-34
